sensor_id;sensor_type;location;lat;lon;timestamp;temperature;humidity
13436;DHT22;6790;49.520;8.504;2023-04-28T00:01:13;11.40;99.90
13436;DHT22;6790;49.520;8.504;2023-04-28T00:03:39;11.40;99.90
13436;DHT22;6790;49.520;8.504;2023-04-28T00:06:04;11.40;99.90
13436;DHT22;6790;49.520;8.504;2023-04-28T00:08:30;11.40;99.90
13436;DHT22;6790;49.520;8.504;2023-04-28T00:10:56;11.50;99.90
13436;DHT22;6790;49.520;8.504;2023-04-28T00:13:22;11.60;99.90
13436;DHT22;6790;49.520;8.504;2023-04-28T00:15:51;11.50;99.90
13436;DHT22;6790;49.520;8.504;2023-04-28T00:18:18;11.50;99.90
13436;DHT22;6790;49.520;8.504;2023-04-28T00:20:44;11.50;99.90
13436;DHT22;6790;49.520;8.504;2023-04-28T00:23:10;11.50;99.90
13436;DHT22;6790;49.520;8.504;2023-04-28T00:25:36;11.40;99.90
13436;DHT22;6790;49.520;8.504;2023-04-28T00:28:01;11.30;99.90
13436;DHT22;6790;49.520;8.504;2023-04-28T00:30:29;11.30;99.90
13436;DHT22;6790;49.520;8.504;2023-04-28T00:32:55;11.20;99.90
13436;DHT22;6790;49.520;8.504;2023-04-28T00:35:21;11.10;99.90
13436;DHT22;6790;49.520;8.504;2023-04-28T00:37:47;11.10;99.90
13436;DHT22;6790;49.520;8.504;2023-04-28T00:40:13;11.00;99.90
13436;DHT22;6790;49.520;8.504;2023-04-28T00:42:38;11.00;99.90
13436;DHT22;6790;49.520;8.504;2023-04-28T00:45:05;11.00;99.90
13436;DHT22;6790;49.520;8.504;2023-04-28T00:47:36;11.00;99.90
13436;DHT22;6790;49.520;8.504;2023-04-28T00:50:03;10.90;99.90
13436;DHT22;6790;49.520;8.504;2023-04-28T00:52:32;11.00;99.90
13436;DHT22;6790;49.520;8.504;2023-04-28T00:54:58;11.00;99.90
13436;DHT22;6790;49.520;8.504;2023-04-28T00:57:24;11.00;99.90
13436;DHT22;6790;49.520;8.504;2023-04-28T00:59:50;11.00;99.90
13436;DHT22;6790;49.520;8.504;2023-04-28T01:02:16;11.00;99.90
13436;DHT22;6790;49.520;8.504;2023-04-28T01:04:46;11.00;99.90
13436;DHT22;6790;49.520;8.504;2023-04-28T01:07:11;11.00;99.90
13436;DHT22;6790;49.520;8.504;2023-04-28T01:09:37;10.90;99.90
13436;DHT22;6790;49.520;8.504;2023-04-28T01:12:03;10.90;99.90
13436;DHT22;6790;49.520;8.504;2023-04-28T01:14:29;10.90;99.90
13436;DHT22;6790;49.520;8.504;2023-04-28T01:16:55;10.90;99.90
13436;DHT22;6790;49.520;8.504;2023-04-28T01:19:22;10.90;99.90
13436;DHT22;6790;49.520;8.504;2023-04-28T01:21:49;10.90;99.90
13436;DHT22;6790;49.520;8.504;2023-04-28T01:24:15;10.80;99.90
13436;DHT22;6790;49.520;8.504;2023-04-28T01:26:41;10.80;99.90
13436;DHT22;6790;49.520;8.504;2023-04-28T01:29:07;10.80;99.90
13436;DHT22;6790;49.520;8.504;2023-04-28T01:31:32;10.80;99.90
13436;DHT22;6790;49.520;8.504;2023-04-28T01:33:58;10.80;99.90
13436;DHT22;6790;49.520;8.504;2023-04-28T01:36:24;10.80;99.90
13436;DHT22;6790;49.520;8.504;2023-04-28T01:38:53;10.90;99.90
13436;DHT22;6790;49.520;8.504;2023-04-28T01:41:19;10.90;99.90
13436;DHT22;6790;49.520;8.504;2023-04-28T01:43:45;11.00;99.90
13436;DHT22;6790;49.520;8.504;2023-04-28T01:46:10;11.00;99.90
13436;DHT22;6790;49.520;8.504;2023-04-28T01:48:36;11.10;99.90
13436;DHT22;6790;49.520;8.504;2023-04-28T01:51:02;11.10;99.90
13436;DHT22;6790;49.520;8.504;2023-04-28T01:53:27;11.10;99.90
13436;DHT22;6790;49.520;8.504;2023-04-28T01:55:53;11.10;99.90
13436;DHT22;6790;49.520;8.504;2023-04-28T01:58:19;11.10;99.90
13436;DHT22;6790;49.520;8.504;2023-04-28T02:00:45;11.10;99.90
13436;DHT22;6790;49.520;8.504;2023-04-28T02:03:11;11.10;99.90
13436;DHT22;6790;49.520;8.504;2023-04-28T02:05:37;11.20;99.90
13436;DHT22;6790;49.520;8.504;2023-04-28T02:08:03;11.10;99.90
13436;DHT22;6790;49.520;8.504;2023-04-28T02:10:28;11.10;99.90
13436;DHT22;6790;49.520;8.504;2023-04-28T02:12:54;11.10;99.90
13436;DHT22;6790;49.520;8.504;2023-04-28T02:15:20;11.10;99.90
13436;DHT22;6790;49.520;8.504;2023-04-28T02:17:46;11.00;99.90
13436;DHT22;6790;49.520;8.504;2023-04-28T02:20:12;11.00;99.90
13436;DHT22;6790;49.520;8.504;2023-04-28T02:22:39;11.00;99.90
13436;DHT22;6790;49.520;8.504;2023-04-28T02:25:05;11.00;99.90
13436;DHT22;6790;49.520;8.504;2023-04-28T02:27:31;11.00;99.90
13436;DHT22;6790;49.520;8.504;2023-04-28T02:29:57;11.00;99.90
13436;DHT22;6790;49.520;8.504;2023-04-28T02:32:23;11.10;99.90
13436;DHT22;6790;49.520;8.504;2023-04-28T02:34:55;11.10;99.90
13436;DHT22;6790;49.520;8.504;2023-04-28T02:37:21;11.10;99.90
13436;DHT22;6790;49.520;8.504;2023-04-28T02:39:47;11.20;99.90
13436;DHT22;6790;49.520;8.504;2023-04-28T02:42:13;11.20;99.90
13436;DHT22;6790;49.520;8.504;2023-04-28T02:44:38;11.10;99.90
13436;DHT22;6790;49.520;8.504;2023-04-28T02:47:04;11.10;99.90
13436;DHT22;6790;49.520;8.504;2023-04-28T02:49:30;11.10;99.90
13436;DHT22;6790;49.520;8.504;2023-04-28T02:51:56;11.10;99.90
13436;DHT22;6790;49.520;8.504;2023-04-28T02:54:21;11.10;99.90
13436;DHT22;6790;49.520;8.504;2023-04-28T02:56:56;11.10;99.90
13436;DHT22;6790;49.520;8.504;2023-04-28T02:59:23;11.10;99.90
13436;DHT22;6790;49.520;8.504;2023-04-28T03:01:50;11.10;99.90
13436;DHT22;6790;49.520;8.504;2023-04-28T03:04:18;11.10;99.90
13436;DHT22;6790;49.520;8.504;2023-04-28T03:06:44;11.00;99.90
13436;DHT22;6790;49.520;8.504;2023-04-28T03:09:10;11.00;99.90
13436;DHT22;6790;49.520;8.504;2023-04-28T03:11:37;11.00;99.90
13436;DHT22;6790;49.520;8.504;2023-04-28T03:14:02;11.00;99.90
13436;DHT22;6790;49.520;8.504;2023-04-28T03:16:28;10.90;99.90
13436;DHT22;6790;49.520;8.504;2023-04-28T03:18:54;10.90;99.90
13436;DHT22;6790;49.520;8.504;2023-04-28T03:21:20;10.90;99.90
13436;DHT22;6790;49.520;8.504;2023-04-28T03:23:45;10.90;99.90
13436;DHT22;6790;49.520;8.504;2023-04-28T03:26:11;10.80;99.90
13436;DHT22;6790;49.520;8.504;2023-04-28T03:28:37;10.80;99.90
13436;DHT22;6790;49.520;8.504;2023-04-28T03:31:03;10.70;99.90
13436;DHT22;6790;49.520;8.504;2023-04-28T03:33:28;10.70;99.90
13436;DHT22;6790;49.520;8.504;2023-04-28T03:35:54;10.70;99.90
13436;DHT22;6790;49.520;8.504;2023-04-28T03:38:20;10.70;99.90
13436;DHT22;6790;49.520;8.504;2023-04-28T03:40:46;10.60;99.90
13436;DHT22;6790;49.520;8.504;2023-04-28T03:43:12;10.70;99.90
13436;DHT22;6790;49.520;8.504;2023-04-28T03:45:39;10.70;99.90
13436;DHT22;6790;49.520;8.504;2023-04-28T03:48:06;10.80;99.90
13436;DHT22;6790;49.520;8.504;2023-04-28T03:50:32;10.70;99.90
13436;DHT22;6790;49.520;8.504;2023-04-28T03:52:57;10.70;99.90
13436;DHT22;6790;49.520;8.504;2023-04-28T03:55:23;10.60;99.90
13436;DHT22;6790;49.520;8.504;2023-04-28T03:57:50;10.50;99.90
13436;DHT22;6790;49.520;8.504;2023-04-28T04:00:16;10.50;99.90
13436;DHT22;6790;49.520;8.504;2023-04-28T04:02:42;10.40;99.90
13436;DHT22;6790;49.520;8.504;2023-04-28T04:05:08;10.40;99.90
13436;DHT22;6790;49.520;8.504;2023-04-28T04:07:33;10.40;99.90
13436;DHT22;6790;49.520;8.504;2023-04-28T04:09:59;10.40;99.90
13436;DHT22;6790;49.520;8.504;2023-04-28T04:12:25;10.40;99.90
13436;DHT22;6790;49.520;8.504;2023-04-28T04:14:51;10.40;99.90
13436;DHT22;6790;49.520;8.504;2023-04-28T04:17:16;10.40;99.90
13436;DHT22;6790;49.520;8.504;2023-04-28T04:19:42;10.40;99.90
13436;DHT22;6790;49.520;8.504;2023-04-28T04:22:08;10.40;99.90
13436;DHT22;6790;49.520;8.504;2023-04-28T04:24:33;10.50;99.90
13436;DHT22;6790;49.520;8.504;2023-04-28T04:26:59;10.60;99.90
13436;DHT22;6790;49.520;8.504;2023-04-28T04:29:25;10.60;99.90
13436;DHT22;6790;49.520;8.504;2023-04-28T04:31:50;10.60;99.90
13436;DHT22;6790;49.520;8.504;2023-04-28T04:34:16;10.60;99.90
13436;DHT22;6790;49.520;8.504;2023-04-28T04:36:42;10.70;99.90
13436;DHT22;6790;49.520;8.504;2023-04-28T04:39:08;10.70;99.90
13436;DHT22;6790;49.520;8.504;2023-04-28T04:41:34;10.70;99.90
13436;DHT22;6790;49.520;8.504;2023-04-28T04:43:59;10.80;99.90
13436;DHT22;6790;49.520;8.504;2023-04-28T04:46:25;10.80;99.90
13436;DHT22;6790;49.520;8.504;2023-04-28T04:48:51;10.80;99.90
13436;DHT22;6790;49.520;8.504;2023-04-28T04:51:17;10.80;99.90
13436;DHT22;6790;49.520;8.504;2023-04-28T04:53:42;10.90;99.90
13436;DHT22;6790;49.520;8.504;2023-04-28T04:56:08;10.80;99.90
13436;DHT22;6790;49.520;8.504;2023-04-28T04:58:34;10.90;99.90
13436;DHT22;6790;49.520;8.504;2023-04-28T05:00:59;10.90;99.90
13436;DHT22;6790;49.520;8.504;2023-04-28T05:03:25;10.90;99.90
13436;DHT22;6790;49.520;8.504;2023-04-28T05:05:51;10.90;99.90
13436;DHT22;6790;49.520;8.504;2023-04-28T05:08:17;10.90;99.90
13436;DHT22;6790;49.520;8.504;2023-04-28T05:10:43;11.00;99.90
13436;DHT22;6790;49.520;8.504;2023-04-28T05:13:08;11.00;99.90
13436;DHT22;6790;49.520;8.504;2023-04-28T05:15:34;11.00;99.90
13436;DHT22;6790;49.520;8.504;2023-04-28T05:18:00;10.90;99.90
13436;DHT22;6790;49.520;8.504;2023-04-28T05:20:30;10.90;99.90
13436;DHT22;6790;49.520;8.504;2023-04-28T05:22:56;10.90;99.90
13436;DHT22;6790;49.520;8.504;2023-04-28T05:25:22;10.80;99.90
13436;DHT22;6790;49.520;8.504;2023-04-28T05:27:47;10.80;99.90
13436;DHT22;6790;49.520;8.504;2023-04-28T05:30:13;10.90;99.90
13436;DHT22;6790;49.520;8.504;2023-04-28T05:32:40;10.90;99.90
13436;DHT22;6790;49.520;8.504;2023-04-28T05:35:06;10.80;99.90
13436;DHT22;6790;49.520;8.504;2023-04-28T05:37:31;10.80;99.90
13436;DHT22;6790;49.520;8.504;2023-04-28T05:39:57;10.80;99.90
13436;DHT22;6790;49.520;8.504;2023-04-28T05:42:23;10.80;99.90
13436;DHT22;6790;49.520;8.504;2023-04-28T05:44:48;10.80;99.90
13436;DHT22;6790;49.520;8.504;2023-04-28T05:47:14;10.70;99.90
13436;DHT22;6790;49.520;8.504;2023-04-28T05:49:40;10.70;99.90
13436;DHT22;6790;49.520;8.504;2023-04-28T05:52:05;10.80;99.90
13436;DHT22;6790;49.520;8.504;2023-04-28T05:54:31;10.70;99.90
13436;DHT22;6790;49.520;8.504;2023-04-28T05:56:58;10.70;99.90
13436;DHT22;6790;49.520;8.504;2023-04-28T05:59:24;10.80;99.90
13436;DHT22;6790;49.520;8.504;2023-04-28T06:01:50;10.80;99.90
13436;DHT22;6790;49.520;8.504;2023-04-28T06:04:15;10.80;99.90
13436;DHT22;6790;49.520;8.504;2023-04-28T06:06:41;10.80;99.90
13436;DHT22;6790;49.520;8.504;2023-04-28T06:09:07;10.80;99.90
13436;DHT22;6790;49.520;8.504;2023-04-28T06:11:33;10.70;99.90
13436;DHT22;6790;49.520;8.504;2023-04-28T06:13:59;10.70;99.90
13436;DHT22;6790;49.520;8.504;2023-04-28T06:16:24;10.80;99.90
13436;DHT22;6790;49.520;8.504;2023-04-28T06:18:50;10.90;99.90
13436;DHT22;6790;49.520;8.504;2023-04-28T06:21:16;10.90;99.90
13436;DHT22;6790;49.520;8.504;2023-04-28T06:23:42;10.80;99.90
13436;DHT22;6790;49.520;8.504;2023-04-28T06:26:08;10.80;99.90
13436;DHT22;6790;49.520;8.504;2023-04-28T06:28:34;10.60;99.90
13436;DHT22;6790;49.520;8.504;2023-04-28T06:31:00;10.60;99.90
13436;DHT22;6790;49.520;8.504;2023-04-28T06:33:25;10.90;99.90
13436;DHT22;6790;49.520;8.504;2023-04-28T06:35:51;11.00;99.90
13436;DHT22;6790;49.520;8.504;2023-04-28T06:38:18;10.70;99.90
13436;DHT22;6790;49.520;8.504;2023-04-28T06:40:44;10.80;99.90
13436;DHT22;6790;49.520;8.504;2023-04-28T06:43:10;10.80;99.90
13436;DHT22;6790;49.520;8.504;2023-04-28T06:45:37;11.00;99.90
13436;DHT22;6790;49.520;8.504;2023-04-28T06:48:03;10.80;99.90
13436;DHT22;6790;49.520;8.504;2023-04-28T06:50:30;10.80;99.90
13436;DHT22;6790;49.520;8.504;2023-04-28T06:52:55;10.90;99.90
13436;DHT22;6790;49.520;8.504;2023-04-28T06:55:23;11.00;99.90
13436;DHT22;6790;49.520;8.504;2023-04-28T06:57:48;11.00;99.90
13436;DHT22;6790;49.520;8.504;2023-04-28T07:00:14;11.10;99.90
13436;DHT22;6790;49.520;8.504;2023-04-28T07:02:40;11.00;99.90
13436;DHT22;6790;49.520;8.504;2023-04-28T07:05:06;11.10;99.90
13436;DHT22;6790;49.520;8.504;2023-04-28T07:07:33;11.20;99.90
13436;DHT22;6790;49.520;8.504;2023-04-28T07:09:59;11.10;99.90
13436;DHT22;6790;49.520;8.504;2023-04-28T07:12:26;11.20;99.90
13436;DHT22;6790;49.520;8.504;2023-04-28T07:14:52;11.40;99.90
13436;DHT22;6790;49.520;8.504;2023-04-28T07:17:18;11.30;99.90
13436;DHT22;6790;49.520;8.504;2023-04-28T07:19:43;11.30;99.90
13436;DHT22;6790;49.520;8.504;2023-04-28T07:22:09;11.20;99.90
13436;DHT22;6790;49.520;8.504;2023-04-28T07:24:35;11.40;99.90
13436;DHT22;6790;49.520;8.504;2023-04-28T07:27:00;11.40;99.90
13436;DHT22;6790;49.520;8.504;2023-04-28T07:29:28;11.40;99.90
13436;DHT22;6790;49.520;8.504;2023-04-28T07:32:01;11.60;99.90
13436;DHT22;6790;49.520;8.504;2023-04-28T07:34:29;11.80;99.90
13436;DHT22;6790;49.520;8.504;2023-04-28T07:36:55;11.70;99.90
13436;DHT22;6790;49.520;8.504;2023-04-28T07:39:22;11.80;99.90
13436;DHT22;6790;49.520;8.504;2023-04-28T07:41:48;11.60;99.90
13436;DHT22;6790;49.520;8.504;2023-04-28T07:44:13;11.60;99.90
13436;DHT22;6790;49.520;8.504;2023-04-28T07:46:39;11.90;99.90
13436;DHT22;6790;49.520;8.504;2023-04-28T07:49:05;11.80;99.90
13436;DHT22;6790;49.520;8.504;2023-04-28T07:51:32;11.90;99.90
13436;DHT22;6790;49.520;8.504;2023-04-28T07:53:58;11.90;99.90
13436;DHT22;6790;49.520;8.504;2023-04-28T07:56:24;12.00;99.90
13436;DHT22;6790;49.520;8.504;2023-04-28T07:58:50;12.40;99.90
13436;DHT22;6790;49.520;8.504;2023-04-28T08:01:16;12.20;99.90
13436;DHT22;6790;49.520;8.504;2023-04-28T08:03:42;12.40;99.90
13436;DHT22;6790;49.520;8.504;2023-04-28T08:06:08;12.60;99.90
13436;DHT22;6790;49.520;8.504;2023-04-28T08:08:34;12.60;99.90
13436;DHT22;6790;49.520;8.504;2023-04-28T08:11:00;12.50;99.90
13436;DHT22;6790;49.520;8.504;2023-04-28T08:13:26;12.40;99.90
13436;DHT22;6790;49.520;8.504;2023-04-28T08:15:53;12.40;99.90
13436;DHT22;6790;49.520;8.504;2023-04-28T08:18:21;12.50;99.90
13436;DHT22;6790;49.520;8.504;2023-04-28T08:20:47;12.70;99.90
13436;DHT22;6790;49.520;8.504;2023-04-28T08:23:13;12.70;99.90
13436;DHT22;6790;49.520;8.504;2023-04-28T08:25:38;12.80;99.90
13436;DHT22;6790;49.520;8.504;2023-04-28T08:28:04;13.10;99.90
13436;DHT22;6790;49.520;8.504;2023-04-28T08:30:31;13.00;99.90
13436;DHT22;6790;49.520;8.504;2023-04-28T08:32:56;13.10;99.90
13436;DHT22;6790;49.520;8.504;2023-04-28T08:35:22;13.10;99.90
13436;DHT22;6790;49.520;8.504;2023-04-28T08:37:48;13.10;99.90
13436;DHT22;6790;49.520;8.504;2023-04-28T08:40:14;12.90;99.90
13436;DHT22;6790;49.520;8.504;2023-04-28T08:42:40;13.10;99.90
13436;DHT22;6790;49.520;8.504;2023-04-28T08:45:07;13.30;99.90
13436;DHT22;6790;49.520;8.504;2023-04-28T08:47:38;13.30;99.90
13436;DHT22;6790;49.520;8.504;2023-04-28T08:50:11;13.60;99.90
13436;DHT22;6790;49.520;8.504;2023-04-28T08:52:38;13.70;99.90
13436;DHT22;6790;49.520;8.504;2023-04-28T08:55:09;13.90;99.90
13436;DHT22;6790;49.520;8.504;2023-04-28T08:57:38;13.90;99.90
13436;DHT22;6790;49.520;8.504;2023-04-28T09:00:08;14.00;99.90
13436;DHT22;6790;49.520;8.504;2023-04-28T09:02:35;14.00;99.90
13436;DHT22;6790;49.520;8.504;2023-04-28T09:05:03;14.10;99.90
13436;DHT22;6790;49.520;8.504;2023-04-28T09:07:31;14.10;99.90
13436;DHT22;6790;49.520;8.504;2023-04-28T09:10:19;14.00;99.90
13436;DHT22;6790;49.520;8.504;2023-04-28T09:12:54;13.70;99.90
13436;DHT22;6790;49.520;8.504;2023-04-28T09:15:27;13.50;99.90
13436;DHT22;6790;49.520;8.504;2023-04-28T09:17:57;13.70;99.90
13436;DHT22;6790;49.520;8.504;2023-04-28T09:20:28;13.60;99.90
13436;DHT22;6790;49.520;8.504;2023-04-28T09:22:55;13.60;99.90
13436;DHT22;6790;49.520;8.504;2023-04-28T09:25:37;13.60;99.90
13436;DHT22;6790;49.520;8.504;2023-04-28T09:28:19;13.50;99.90
13436;DHT22;6790;49.520;8.504;2023-04-28T09:30:46;13.40;99.90
13436;DHT22;6790;49.520;8.504;2023-04-28T09:33:12;13.50;99.90
13436;DHT22;6790;49.520;8.504;2023-04-28T09:35:42;13.60;99.90
13436;DHT22;6790;49.520;8.504;2023-04-28T09:38:10;13.50;99.90
13436;DHT22;6790;49.520;8.504;2023-04-28T09:40:57;13.60;99.90
13436;DHT22;6790;49.520;8.504;2023-04-28T09:43:30;13.60;99.90
13436;DHT22;6790;49.520;8.504;2023-04-28T09:45:59;13.60;99.90
13436;DHT22;6790;49.520;8.504;2023-04-28T09:48:34;13.60;99.90
13436;DHT22;6790;49.520;8.504;2023-04-28T09:51:03;13.70;99.90
13436;DHT22;6790;49.520;8.504;2023-04-28T09:53:30;13.80;99.90
13436;DHT22;6790;49.520;8.504;2023-04-28T09:55:58;13.80;99.90
13436;DHT22;6790;49.520;8.504;2023-04-28T09:58:27;13.90;99.90
13436;DHT22;6790;49.520;8.504;2023-04-28T10:00:59;13.90;99.90
13436;DHT22;6790;49.520;8.504;2023-04-28T10:03:26;14.00;99.90
13436;DHT22;6790;49.520;8.504;2023-04-28T10:05:53;14.10;99.90
13436;DHT22;6790;49.520;8.504;2023-04-28T10:08:21;14.10;99.90
13436;DHT22;6790;49.520;8.504;2023-04-28T10:10:49;14.00;99.90
13436;DHT22;6790;49.520;8.504;2023-04-28T10:13:19;14.00;99.90
13436;DHT22;6790;49.520;8.504;2023-04-28T10:15:46;14.00;99.90
13436;DHT22;6790;49.520;8.504;2023-04-28T10:18:13;14.20;99.90
13436;DHT22;6790;49.520;8.504;2023-04-28T10:20:42;14.20;99.90
13436;DHT22;6790;49.520;8.504;2023-04-28T10:29:29;14.10;99.90
13436;DHT22;6790;49.520;8.504;2023-04-28T10:32:22;14.30;99.90
13436;DHT22;6790;49.520;8.504;2023-04-28T10:34:50;14.10;99.90
13436;DHT22;6790;49.520;8.504;2023-04-28T10:37:17;14.30;99.90
13436;DHT22;6790;49.520;8.504;2023-04-28T10:42:56;14.40;99.90
13436;DHT22;6790;49.520;8.504;2023-04-28T10:48:23;14.50;99.90
13436;DHT22;6790;49.520;8.504;2023-04-28T10:56:19;14.60;99.90
13436;DHT22;6790;49.520;8.504;2023-04-28T10:58:56;14.60;99.90
13436;DHT22;6790;49.520;8.504;2023-04-28T11:01:32;14.70;99.90
13436;DHT22;6790;49.520;8.504;2023-04-28T11:04:06;14.50;99.90
13436;DHT22;6790;49.520;8.504;2023-04-28T11:16:58;15.00;99.90
13436;DHT22;6790;49.520;8.504;2023-04-28T11:19:37;14.90;99.90
13436;DHT22;6790;49.520;8.504;2023-04-28T11:22:15;15.00;99.90
13436;DHT22;6790;49.520;8.504;2023-04-28T11:24:55;15.00;99.90
13436;DHT22;6790;49.520;8.504;2023-04-28T11:27:29;14.90;99.90
13436;DHT22;6790;49.520;8.504;2023-04-28T11:29:56;14.90;99.90
13436;DHT22;6790;49.520;8.504;2023-04-28T11:32:27;14.80;99.90
13436;DHT22;6790;49.520;8.504;2023-04-28T11:34:52;14.60;99.90
13436;DHT22;6790;49.520;8.504;2023-04-28T11:37:18;14.80;99.90
13436;DHT22;6790;49.520;8.504;2023-04-28T11:39:46;14.80;99.90
13436;DHT22;6790;49.520;8.504;2023-04-28T11:42:12;14.70;99.90
13436;DHT22;6790;49.520;8.504;2023-04-28T11:44:38;14.60;99.90
13436;DHT22;6790;49.520;8.504;2023-04-28T11:47:04;14.70;99.90
13436;DHT22;6790;49.520;8.504;2023-04-28T11:49:31;14.50;99.90
13436;DHT22;6790;49.520;8.504;2023-04-28T11:52:07;14.60;99.90
13436;DHT22;6790;49.520;8.504;2023-04-28T11:54:34;14.90;99.90
13436;DHT22;6790;49.520;8.504;2023-04-28T11:57:00;14.60;99.90
13436;DHT22;6790;49.520;8.504;2023-04-28T11:59:33;14.60;99.90
13436;DHT22;6790;49.520;8.504;2023-04-28T12:02:04;14.60;99.90
13436;DHT22;6790;49.520;8.504;2023-04-28T12:07:14;14.70;99.90
13436;DHT22;6790;49.520;8.504;2023-04-28T12:09:43;14.90;99.90
13436;DHT22;6790;49.520;8.504;2023-04-28T12:14:57;15.00;99.90
13436;DHT22;6790;49.520;8.504;2023-04-28T12:17:24;15.00;99.90
13436;DHT22;6790;49.520;8.504;2023-04-28T12:19:51;14.60;99.90
13436;DHT22;6790;49.520;8.504;2023-04-28T12:22:17;14.50;99.90
13436;DHT22;6790;49.520;8.504;2023-04-28T12:24:43;14.60;99.90
13436;DHT22;6790;49.520;8.504;2023-04-28T12:27:20;15.00;99.90
13436;DHT22;6790;49.520;8.504;2023-04-28T12:29:50;14.50;99.90
13436;DHT22;6790;49.520;8.504;2023-04-28T12:32:16;15.00;99.90
13436;DHT22;6790;49.520;8.504;2023-04-28T12:34:44;15.00;99.90
13436;DHT22;6790;49.520;8.504;2023-04-28T12:37:11;15.10;99.90
13436;DHT22;6790;49.520;8.504;2023-04-28T12:39:40;15.10;99.90
13436;DHT22;6790;49.520;8.504;2023-04-28T12:42:06;14.70;99.90
13436;DHT22;6790;49.520;8.504;2023-04-28T12:44:34;14.60;99.90
13436;DHT22;6790;49.520;8.504;2023-04-28T12:47:02;14.90;99.90
13436;DHT22;6790;49.520;8.504;2023-04-28T12:49:31;14.90;99.90
13436;DHT22;6790;49.520;8.504;2023-04-28T12:51:58;15.40;99.90
13436;DHT22;6790;49.520;8.504;2023-04-28T12:54:23;15.40;99.90
13436;DHT22;6790;49.520;8.504;2023-04-28T12:56:49;15.40;99.90
13436;DHT22;6790;49.520;8.504;2023-04-28T12:59:15;15.00;99.90
13436;DHT22;6790;49.520;8.504;2023-04-28T13:01:41;14.80;99.90
13436;DHT22;6790;49.520;8.504;2023-04-28T13:04:07;14.80;99.90
13436;DHT22;6790;49.520;8.504;2023-04-28T13:06:33;14.90;99.90
13436;DHT22;6790;49.520;8.504;2023-04-28T13:09:00;14.80;99.90
13436;DHT22;6790;49.520;8.504;2023-04-28T13:11:28;15.00;99.90
13436;DHT22;6790;49.520;8.504;2023-04-28T13:13:56;15.60;99.90
13436;DHT22;6790;49.520;8.504;2023-04-28T13:16:22;15.70;99.90
13436;DHT22;6790;49.520;8.504;2023-04-28T13:18:53;15.80;99.90
13436;DHT22;6790;49.520;8.504;2023-04-28T13:21:21;15.70;99.90
13436;DHT22;6790;49.520;8.504;2023-04-28T13:23:48;15.40;99.90
13436;DHT22;6790;49.520;8.504;2023-04-28T13:26:17;16.20;99.90
13436;DHT22;6790;49.520;8.504;2023-04-28T13:28:45;15.90;99.90
13436;DHT22;6790;49.520;8.504;2023-04-28T13:31:12;16.70;99.90
13436;DHT22;6790;49.520;8.504;2023-04-28T13:33:38;16.20;99.90
13436;DHT22;6790;49.520;8.504;2023-04-28T13:36:04;16.90;99.90
13436;DHT22;6790;49.520;8.504;2023-04-28T13:38:32;16.40;99.90
13436;DHT22;6790;49.520;8.504;2023-04-28T13:40:58;16.60;99.90
13436;DHT22;6790;49.520;8.504;2023-04-28T13:43:23;16.60;99.90
13436;DHT22;6790;49.520;8.504;2023-04-28T13:45:50;16.80;99.90
13436;DHT22;6790;49.520;8.504;2023-04-28T13:48:17;16.50;99.90
13436;DHT22;6790;49.520;8.504;2023-04-28T13:50:44;16.40;99.90
13436;DHT22;6790;49.520;8.504;2023-04-28T13:53:10;16.50;99.90
13436;DHT22;6790;49.520;8.504;2023-04-28T13:55:36;16.90;99.90
13436;DHT22;6790;49.520;8.504;2023-04-28T13:58:02;16.80;99.90
13436;DHT22;6790;49.520;8.504;2023-04-28T14:00:33;16.60;99.90
13436;DHT22;6790;49.520;8.504;2023-04-28T14:02:59;16.10;99.90
13436;DHT22;6790;49.520;8.504;2023-04-28T14:05:28;16.10;99.90
13436;DHT22;6790;49.520;8.504;2023-04-28T14:07:53;16.40;99.90
13436;DHT22;6790;49.520;8.504;2023-04-28T14:10:20;16.40;99.90
13436;DHT22;6790;49.520;8.504;2023-04-28T14:12:46;16.10;99.90
13436;DHT22;6790;49.520;8.504;2023-04-28T14:15:12;16.10;99.90
13436;DHT22;6790;49.520;8.504;2023-04-28T14:17:38;16.00;99.90
13436;DHT22;6790;49.520;8.504;2023-04-28T14:20:04;15.80;99.90
13436;DHT22;6790;49.520;8.504;2023-04-28T14:22:30;15.80;99.90
13436;DHT22;6790;49.520;8.504;2023-04-28T14:24:56;15.70;99.90
13436;DHT22;6790;49.520;8.504;2023-04-28T14:27:22;16.10;99.90
13436;DHT22;6790;49.520;8.504;2023-04-28T14:29:48;16.10;99.90
13436;DHT22;6790;49.520;8.504;2023-04-28T14:32:14;15.60;99.90
13436;DHT22;6790;49.520;8.504;2023-04-28T14:34:47;15.80;99.90
13436;DHT22;6790;49.520;8.504;2023-04-28T14:37:14;15.80;99.90
13436;DHT22;6790;49.520;8.504;2023-04-28T14:39:41;15.40;99.90
13436;DHT22;6790;49.520;8.504;2023-04-28T14:42:07;16.00;99.90
13436;DHT22;6790;49.520;8.504;2023-04-28T14:44:33;16.00;99.90
13436;DHT22;6790;49.520;8.504;2023-04-28T14:47:00;15.80;99.90
13436;DHT22;6790;49.520;8.504;2023-04-28T14:49:26;15.60;99.90
13436;DHT22;6790;49.520;8.504;2023-04-28T14:51:52;16.20;99.90
13436;DHT22;6790;49.520;8.504;2023-04-28T14:54:18;16.20;99.90
13436;DHT22;6790;49.520;8.504;2023-04-28T14:56:46;16.30;99.90
13436;DHT22;6790;49.520;8.504;2023-04-28T14:59:12;16.50;99.90
13436;DHT22;6790;49.520;8.504;2023-04-28T15:01:38;16.20;99.90
13436;DHT22;6790;49.520;8.504;2023-04-28T15:04:04;16.50;99.90
13436;DHT22;6790;49.520;8.504;2023-04-28T15:06:30;17.40;99.90
13436;DHT22;6790;49.520;8.504;2023-04-28T15:08:57;17.90;99.90
13436;DHT22;6790;49.520;8.504;2023-04-28T15:11:22;17.50;99.90
13436;DHT22;6790;49.520;8.504;2023-04-28T15:13:51;16.80;99.90
13436;DHT22;6790;49.520;8.504;2023-04-28T15:16:17;16.80;99.90
13436;DHT22;6790;49.520;8.504;2023-04-28T15:18:43;17.10;99.90
13436;DHT22;6790;49.520;8.504;2023-04-28T15:21:10;16.80;99.90
13436;DHT22;6790;49.520;8.504;2023-04-28T15:23:36;16.90;99.90
13436;DHT22;6790;49.520;8.504;2023-04-28T15:26:02;16.70;99.90
13436;DHT22;6790;49.520;8.504;2023-04-28T15:28:29;16.60;99.90
13436;DHT22;6790;49.520;8.504;2023-04-28T15:30:55;16.50;99.90
13436;DHT22;6790;49.520;8.504;2023-04-28T15:33:21;17.10;99.90
13436;DHT22;6790;49.520;8.504;2023-04-28T15:35:48;17.20;99.90
13436;DHT22;6790;49.520;8.504;2023-04-28T15:38:14;16.80;99.90
13436;DHT22;6790;49.520;8.504;2023-04-28T15:40:41;16.90;99.90
13436;DHT22;6790;49.520;8.504;2023-04-28T15:43:08;16.90;99.90
13436;DHT22;6790;49.520;8.504;2023-04-28T15:45:34;17.40;99.90
13436;DHT22;6790;49.520;8.504;2023-04-28T15:48:01;17.50;99.90
13436;DHT22;6790;49.520;8.504;2023-04-28T15:50:29;17.30;99.90
13436;DHT22;6790;49.520;8.504;2023-04-28T15:52:54;17.20;99.90
13436;DHT22;6790;49.520;8.504;2023-04-28T15:55:21;17.10;99.90
13436;DHT22;6790;49.520;8.504;2023-04-28T15:57:48;17.20;99.90
13436;DHT22;6790;49.520;8.504;2023-04-28T16:00:14;17.30;99.90
13436;DHT22;6790;49.520;8.504;2023-04-28T16:02:41;17.20;99.90
13436;DHT22;6790;49.520;8.504;2023-04-28T16:05:11;16.90;99.90
13436;DHT22;6790;49.520;8.504;2023-04-28T16:07:37;16.70;99.90
13436;DHT22;6790;49.520;8.504;2023-04-28T16:10:06;16.70;99.90
13436;DHT22;6790;49.520;8.504;2023-04-28T16:12:33;17.10;99.90
13436;DHT22;6790;49.520;8.504;2023-04-28T16:14:59;17.30;99.90
13436;DHT22;6790;49.520;8.504;2023-04-28T16:17:26;17.80;99.90